sensor_id;sensor_type;location;lat;lon;timestamp;P1;durP1;ratioP1;P2;durP2;ratioP2
65477;SDS011;53678;39.642;22.430;2024-02-26T00:02:25;14.73;;;4.28;;
65477;SDS011;53678;39.642;22.430;2024-02-26T00:04:51;11.68;;;4.70;;
65477;SDS011;53678;39.642;22.430;2024-02-26T00:07:16;14.50;;;4.40;;
65477;SDS011;53678;39.642;22.430;2024-02-26T00:09:42;9.73;;;4.55;;
65477;SDS011;53678;39.642;22.430;2024-02-26T00:12:08;7.18;;;4.03;;
65477;SDS011;53678;39.642;22.430;2024-02-26T00:14:34;10.27;;;3.97;;
65477;SDS011;53678;39.642;22.430;2024-02-26T00:17:00;10.88;;;3.95;;
65477;SDS011;53678;39.642;22.430;2024-02-26T00:19:25;8.43;;;3.92;;
65477;SDS011;53678;39.642;22.430;2024-02-26T00:21:51;18.17;;;4.18;;
65477;SDS011;53678;39.642;22.430;2024-02-26T00:24:19;12.23;;;4.68;;
65477;SDS011;53678;39.642;22.430;2024-02-26T00:26:44;11.38;;;4.90;;
65477;SDS011;53678;39.642;22.430;2024-02-26T00:29:10;9.13;;;3.97;;
65477;SDS011;53678;39.642;22.430;2024-02-26T00:31:36;11.02;;;4.78;;
65477;SDS011;53678;39.642;22.430;2024-02-26T00:34:03;9.57;;;4.80;;
65477;SDS011;53678;39.642;22.430;2024-02-26T00:36:28;11.43;;;4.15;;
65477;SDS011;53678;39.642;22.430;2024-02-26T00:38:54;10.27;;;4.28;;
65477;SDS011;53678;39.642;22.430;2024-02-26T00:41:20;10.57;;;4.22;;
65477;SDS011;53678;39.642;22.430;2024-02-26T00:43:46;13.65;;;4.32;;
65477;SDS011;53678;39.642;22.430;2024-02-26T00:46:12;11.07;;;4.28;;
65477;SDS011;53678;39.642;22.430;2024-02-26T00:48:38;11.82;;;5.07;;
65477;SDS011;53678;39.642;22.430;2024-02-26T00:51:04;10.98;;;4.95;;
65477;SDS011;53678;39.642;22.430;2024-02-26T00:53:33;13.25;;;5.60;;
65477;SDS011;53678;39.642;22.430;2024-02-26T00:55:59;11.63;;;5.10;;
65477;SDS011;53678;39.642;22.430;2024-02-26T00:58:25;9.20;;;5.30;;
65477;SDS011;53678;39.642;22.430;2024-02-26T01:00:52;15.82;;;6.50;;
65477;SDS011;53678;39.642;22.430;2024-02-26T01:03:17;12.48;;;5.47;;
65477;SDS011;53678;39.642;22.430;2024-02-26T01:05:44;12.75;;;6.07;;
65477;SDS011;53678;39.642;22.430;2024-02-26T01:08:10;10.10;;;5.95;;
65477;SDS011;53678;39.642;22.430;2024-02-26T01:10:35;11.48;;;5.72;;
65477;SDS011;53678;39.642;22.430;2024-02-26T01:13:01;12.32;;;5.22;;
65477;SDS011;53678;39.642;22.430;2024-02-26T01:15:27;13.90;;;5.38;;
65477;SDS011;53678;39.642;22.430;2024-02-26T01:17:53;12.20;;;5.65;;
65477;SDS011;53678;39.642;22.430;2024-02-26T01:20:19;12.55;;;6.72;;
65477;SDS011;53678;39.642;22.430;2024-02-26T01:22:45;12.18;;;4.28;;
65477;SDS011;53678;39.642;22.430;2024-02-26T01:25:12;7.82;;;3.70;;
65477;SDS011;53678;39.642;22.430;2024-02-26T01:27:38;9.55;;;3.30;;
65477;SDS011;53678;39.642;22.430;2024-02-26T01:30:07;8.75;;;3.42;;
65477;SDS011;53678;39.642;22.430;2024-02-26T01:32:33;8.32;;;3.08;;
65477;SDS011;53678;39.642;22.430;2024-02-26T01:35:01;9.38;;;3.25;;
65477;SDS011;53678;39.642;22.430;2024-02-26T01:37:28;8.55;;;3.10;;
65477;SDS011;53678;39.642;22.430;2024-02-26T01:39:55;7.68;;;3.42;;
65477;SDS011;53678;39.642;22.430;2024-02-26T01:42:21;5.68;;;2.63;;
65477;SDS011;53678;39.642;22.430;2024-02-26T01:44:46;11.60;;;2.88;;
65477;SDS011;53678;39.642;22.430;2024-02-26T01:47:12;5.43;;;2.72;;
65477;SDS011;53678;39.642;22.430;2024-02-26T01:49:39;6.55;;;2.30;;
65477;SDS011;53678;39.642;22.430;2024-02-26T01:52:06;4.95;;;2.40;;
65477;SDS011;53678;39.642;22.430;2024-02-26T01:54:36;8.15;;;2.55;;
65477;SDS011;53678;39.642;22.430;2024-02-26T01:57:03;5.72;;;2.15;;
65477;SDS011;53678;39.642;22.430;2024-02-26T01:59:31;5.05;;;2.10;;
65477;SDS011;53678;39.642;22.430;2024-02-26T02:01:57;5.43;;;1.88;;
65477;SDS011;53678;39.642;22.430;2024-02-26T02:04:27;5.05;;;1.85;;
65477;SDS011;53678;39.642;22.430;2024-02-26T02:06:53;3.53;;;1.65;;
65477;SDS011;53678;39.642;22.430;2024-02-26T02:09:19;4.35;;;1.92;;
65477;SDS011;53678;39.642;22.430;2024-02-26T02:11:46;2.55;;;1.40;;
65477;SDS011;53678;39.642;22.430;2024-02-26T02:14:13;2.55;;;1.30;;
65477;SDS011;53678;39.642;22.430;2024-02-26T02:16:39;3.70;;;1.50;;
65477;SDS011;53678;39.642;22.430;2024-02-26T02:19:05;6.03;;;1.50;;
65477;SDS011;53678;39.642;22.430;2024-02-26T02:21:31;4.65;;;1.30;;
65477;SDS011;53678;39.642;22.430;2024-02-26T02:23:57;3.20;;;1.23;;
65477;SDS011;53678;39.642;22.430;2024-02-26T02:26:23;5.43;;;1.40;;
65477;SDS011;53678;39.642;22.430;2024-02-26T02:28:49;4.18;;;1.30;;
65477;SDS011;53678;39.642;22.430;2024-02-26T02:31:14;4.18;;;1.30;;
65477;SDS011;53678;39.642;22.430;2024-02-26T02:33:41;2.05;;;1.08;;
65477;SDS011;53678;39.642;22.430;2024-02-26T02:36:07;3.25;;;1.23;;
65477;SDS011;53678;39.642;22.430;2024-02-26T02:38:38;3.08;;;1.20;;
65477;SDS011;53678;39.642;22.430;2024-02-26T02:41:13;4.85;;;1.17;;
65477;SDS011;53678;39.642;22.430;2024-02-26T02:43:39;6.80;;;1.38;;
65477;SDS011;53678;39.642;22.430;2024-02-26T02:46:05;3.83;;;1.52;;
65477;SDS011;53678;39.642;22.430;2024-02-26T02:48:31;7.70;;;1.50;;
65477;SDS011;53678;39.642;22.430;2024-02-26T02:50:57;4.60;;;1.50;;
65477;SDS011;53678;39.642;22.430;2024-02-26T02:53:22;6.78;;;1.60;;
65477;SDS011;53678;39.642;22.430;2024-02-26T02:55:48;4.97;;;1.50;;
65477;SDS011;53678;39.642;22.430;2024-02-26T02:58:13;3.55;;;1.48;;
65477;SDS011;53678;39.642;22.430;2024-02-26T03:00:39;12.35;;;2.05;;
65477;SDS011;53678;39.642;22.430;2024-02-26T03:03:05;6.63;;;1.77;;
65477;SDS011;53678;39.642;22.430;2024-02-26T03:05:31;8.77;;;2.30;;
65477;SDS011;53678;39.642;22.430;2024-02-26T03:07:57;8.13;;;1.73;;
65477;SDS011;53678;39.642;22.430;2024-02-26T03:10:23;11.25;;;2.17;;
65477;SDS011;53678;39.642;22.430;2024-02-26T03:12:50;5.18;;;1.83;;
65477;SDS011;53678;39.642;22.430;2024-02-26T03:15:16;9.90;;;2.03;;
65477;SDS011;53678;39.642;22.430;2024-02-26T03:17:41;8.43;;;1.90;;
65477;SDS011;53678;39.642;22.430;2024-02-26T03:20:07;6.97;;;2.10;;
65477;SDS011;53678;39.642;22.430;2024-02-26T03:22:34;8.65;;;2.58;;
65477;SDS011;53678;39.642;22.430;2024-02-26T03:25:02;10.15;;;2.17;;
65477;SDS011;53678;39.642;22.430;2024-02-26T03:27:27;7.25;;;2.63;;
65477;SDS011;53678;39.642;22.430;2024-02-26T03:29:53;8.93;;;2.13;;
65477;SDS011;53678;39.642;22.430;2024-02-26T03:32:19;6.07;;;1.90;;
65477;SDS011;53678;39.642;22.430;2024-02-26T03:34:46;6.55;;;2.10;;
65477;SDS011;53678;39.642;22.430;2024-02-26T03:37:12;6.53;;;1.70;;
65477;SDS011;53678;39.642;22.430;2024-02-26T03:39:37;10.25;;;2.10;;
65477;SDS011;53678;39.642;22.430;2024-02-26T03:42:04;4.68;;;1.92;;
65477;SDS011;53678;39.642;22.430;2024-02-26T03:44:31;5.30;;;1.40;;
65477;SDS011;53678;39.642;22.430;2024-02-26T03:46:56;4.70;;;1.50;;
65477;SDS011;53678;39.642;22.430;2024-02-26T03:49:22;4.13;;;1.60;;
65477;SDS011;53678;39.642;22.430;2024-02-26T03:51:48;7.35;;;1.38;;
65477;SDS011;53678;39.642;22.430;2024-02-26T03:54:14;3.63;;;1.35;;
65477;SDS011;53678;39.642;22.430;2024-02-26T03:56:39;12.02;;;1.55;;
65477;SDS011;53678;39.642;22.430;2024-02-26T03:59:05;7.22;;;1.70;;
65477;SDS011;53678;39.642;22.430;2024-02-26T04:01:31;6.85;;;1.77;;
65477;SDS011;53678;39.642;22.430;2024-02-26T04:03:56;8.15;;;1.83;;
65477;SDS011;53678;39.642;22.430;2024-02-26T04:06:22;5.57;;;1.75;;
65477;SDS011;53678;39.642;22.430;2024-02-26T04:08:48;6.28;;;1.50;;
65477;SDS011;53678;39.642;22.430;2024-02-26T04:11:14;7.15;;;1.48;;
65477;SDS011;53678;39.642;22.430;2024-02-26T04:13:46;10.18;;;2.05;;
65477;SDS011;53678;39.642;22.430;2024-02-26T04:16:14;8.50;;;1.70;;
65477;SDS011;53678;39.642;22.430;2024-02-26T04:18:41;9.32;;;1.98;;
65477;SDS011;53678;39.642;22.430;2024-02-26T04:21:07;7.75;;;2.28;;
65477;SDS011;53678;39.642;22.430;2024-02-26T04:23:33;6.07;;;1.92;;
65477;SDS011;53678;39.642;22.430;2024-02-26T04:25:59;9.23;;;1.60;;
65477;SDS011;53678;39.642;22.430;2024-02-26T04:28:25;9.43;;;1.70;;
65477;SDS011;53678;39.642;22.430;2024-02-26T04:30:51;8.73;;;1.92;;
65477;SDS011;53678;39.642;22.430;2024-02-26T04:33:17;5.05;;;1.88;;
65477;SDS011;53678;39.642;22.430;2024-02-26T04:35:43;11.45;;;1.98;;
65477;SDS011;53678;39.642;22.430;2024-02-26T04:38:09;6.10;;;1.67;;
65477;SDS011;53678;39.642;22.430;2024-02-26T04:40:34;10.77;;;2.15;;
65477;SDS011;53678;39.642;22.430;2024-02-26T04:43:01;11.50;;;2.47;;
65477;SDS011;53678;39.642;22.430;2024-02-26T04:45:26;15.55;;;2.70;;
65477;SDS011;53678;39.642;22.430;2024-02-26T04:47:52;11.68;;;2.30;;
65477;SDS011;53678;39.642;22.430;2024-02-26T04:50:18;10.05;;;2.50;;
65477;SDS011;53678;39.642;22.430;2024-02-26T04:52:45;11.32;;;2.45;;
65477;SDS011;53678;39.642;22.430;2024-02-26T04:55:10;6.75;;;1.98;;
65477;SDS011;53678;39.642;22.430;2024-02-26T04:57:37;9.43;;;2.58;;
65477;SDS011;53678;39.642;22.430;2024-02-26T05:00:03;11.38;;;2.97;;
65477;SDS011;53678;39.642;22.430;2024-02-26T05:02:30;13.93;;;2.90;;
65477;SDS011;53678;39.642;22.430;2024-02-26T05:04:57;8.40;;;2.63;;
65477;SDS011;53678;39.642;22.430;2024-02-26T05:07:24;11.90;;;2.90;;
65477;SDS011;53678;39.642;22.430;2024-02-26T05:09:50;11.60;;;3.53;;
65477;SDS011;53678;39.642;22.430;2024-02-26T05:12:15;11.38;;;3.72;;
65477;SDS011;53678;39.642;22.430;2024-02-26T05:14:41;9.68;;;2.58;;
65477;SDS011;53678;39.642;22.430;2024-02-26T05:17:08;10.07;;;3.08;;
65477;SDS011;53678;39.642;22.430;2024-02-26T05:19:33;8.25;;;2.88;;
65477;SDS011;53678;39.642;22.430;2024-02-26T05:21:59;10.10;;;3.95;;
65477;SDS011;53678;39.642;22.430;2024-02-26T05:24:25;10.05;;;2.85;;
65477;SDS011;53678;39.642;22.430;2024-02-26T05:26:50;10.32;;;3.47;;
65477;SDS011;53678;39.642;22.430;2024-02-26T05:29:16;9.68;;;3.33;;
65477;SDS011;53678;39.642;22.430;2024-02-26T05:31:42;8.77;;;3.13;;
65477;SDS011;53678;39.642;22.430;2024-02-26T05:34:09;8.50;;;3.05;;
65477;SDS011;53678;39.642;22.430;2024-02-26T05:36:35;7.40;;;3.35;;
65477;SDS011;53678;39.642;22.430;2024-02-26T05:39:00;9.45;;;2.88;;
65477;SDS011;53678;39.642;22.430;2024-02-26T05:41:26;10.15;;;3.80;;
65477;SDS011;53678;39.642;22.430;2024-02-26T05:43:52;6.43;;;2.90;;
65477;SDS011;53678;39.642;22.430;2024-02-26T05:46:19;7.28;;;3.78;;
65477;SDS011;53678;39.642;22.430;2024-02-26T05:48:49;6.20;;;3.03;;
65477;SDS011;53678;39.642;22.430;2024-02-26T05:51:16;10.30;;;3.47;;
65477;SDS011;53678;39.642;22.430;2024-02-26T05:53:42;6.28;;;3.10;;
65477;SDS011;53678;39.642;22.430;2024-02-26T05:56:08;4.85;;;2.83;;
65477;SDS011;53678;39.642;22.430;2024-02-26T05:58:34;6.32;;;3.60;;
65477;SDS011;53678;39.642;22.430;2024-02-26T06:00:59;6.95;;;3.72;;
65477;SDS011;53678;39.642;22.430;2024-02-26T06:03:25;10.45;;;3.92;;
65477;SDS011;53678;39.642;22.430;2024-02-26T06:05:51;9.82;;;4.20;;
65477;SDS011;53678;39.642;22.430;2024-02-26T06:08:17;8.27;;;3.72;;
65477;SDS011;53678;39.642;22.430;2024-02-26T06:10:43;8.25;;;3.55;;
65477;SDS011;53678;39.642;22.430;2024-02-26T06:13:09;7.57;;;3.75;;
65477;SDS011;53678;39.642;22.430;2024-02-26T06:15:35;6.95;;;3.80;;
65477;SDS011;53678;39.642;22.430;2024-02-26T06:18:01;7.63;;;3.70;;
65477;SDS011;53678;39.642;22.430;2024-02-26T06:20:27;5.75;;;3.63;;
65477;SDS011;53678;39.642;22.430;2024-02-26T06:22:53;12.25;;;4.60;;
65477;SDS011;53678;39.642;22.430;2024-02-26T06:25:19;6.57;;;3.38;;
65477;SDS011;53678;39.642;22.430;2024-02-26T06:27:45;8.75;;;2.90;;
65477;SDS011;53678;39.642;22.430;2024-02-26T06:30:10;13.10;;;3.25;;
65477;SDS011;53678;39.642;22.430;2024-02-26T06:32:37;5.88;;;3.35;;
65477;SDS011;53678;39.642;22.430;2024-02-26T06:35:04;15.75;;;3.88;;
65477;SDS011;53678;39.642;22.430;2024-02-26T06:37:34;9.13;;;3.58;;
65477;SDS011;53678;39.642;22.430;2024-02-26T06:40:00;7.28;;;3.53;;
65477;SDS011;53678;39.642;22.430;2024-02-26T06:42:30;7.18;;;3.55;;
65477;SDS011;53678;39.642;22.430;2024-02-26T06:44:57;7.00;;;3.60;;
65477;SDS011;53678;39.642;22.430;2024-02-26T06:47:23;8.25;;;4.47;;
65477;SDS011;53678;39.642;22.430;2024-02-26T06:49:50;7.32;;;4.13;;
65477;SDS011;53678;39.642;22.430;2024-02-26T06:52:15;8.13;;;4.90;;
65477;SDS011;53678;39.642;22.430;2024-02-26T06:54:41;7.88;;;3.45;;
65477;SDS011;53678;39.642;22.430;2024-02-26T06:57:07;6.18;;;3.90;;
65477;SDS011;53678;39.642;22.430;2024-02-26T06:59:32;7.20;;;3.90;;
65477;SDS011;53678;39.642;22.430;2024-02-26T07:01:58;10.48;;;3.35;;
65477;SDS011;53678;39.642;22.430;2024-02-26T07:04:24;7.57;;;3.08;;
65477;SDS011;53678;39.642;22.430;2024-02-26T07:06:51;9.65;;;2.15;;
65477;SDS011;53678;39.642;22.430;2024-02-26T07:09:18;7.00;;;2.80;;
65477;SDS011;53678;39.642;22.430;2024-02-26T07:11:44;5.60;;;2.38;;
65477;SDS011;53678;39.642;22.430;2024-02-26T07:14:10;7.40;;;2.70;;
65477;SDS011;53678;39.642;22.430;2024-02-26T07:16:36;7.65;;;2.50;;
65477;SDS011;53678;39.642;22.430;2024-02-26T07:19:02;15.43;;;3.70;;
65477;SDS011;53678;39.642;22.430;2024-02-26T07:21:28;14.35;;;5.18;;
65477;SDS011;53678;39.642;22.430;2024-02-26T07:23:54;6.43;;;2.90;;
65477;SDS011;53678;39.642;22.430;2024-02-26T07:26:21;10.77;;;3.00;;
65477;SDS011;53678;39.642;22.430;2024-02-26T07:28:47;13.23;;;3.63;;
65477;SDS011;53678;39.642;22.430;2024-02-26T07:31:12;8.38;;;2.60;;
65477;SDS011;53678;39.642;22.430;2024-02-26T07:33:38;9.55;;;2.30;;
65477;SDS011;53678;39.642;22.430;2024-02-26T07:36:04;8.18;;;2.63;;
65477;SDS011;53678;39.642;22.430;2024-02-26T07:38:29;6.38;;;2.50;;
65477;SDS011;53678;39.642;22.430;2024-02-26T07:40:55;7.95;;;2.63;;
65477;SDS011;53678;39.642;22.430;2024-02-26T07:43:22;8.07;;;2.55;;
65477;SDS011;53678;39.642;22.430;2024-02-26T07:45:49;10.02;;;3.17;;
65477;SDS011;53678;39.642;22.430;2024-02-26T07:48:14;9.40;;;2.50;;
65477;SDS011;53678;39.642;22.430;2024-02-26T07:50:41;4.75;;;1.80;;
65477;SDS011;53678;39.642;22.430;2024-02-26T07:53:07;8.60;;;1.83;;
65477;SDS011;53678;39.642;22.430;2024-02-26T07:55:33;7.45;;;1.50;;
65477;SDS011;53678;39.642;22.430;2024-02-26T07:57:59;7.20;;;1.95;;
65477;SDS011;53678;39.642;22.430;2024-02-26T08:00:24;6.75;;;1.58;;
65477;SDS011;53678;39.642;22.430;2024-02-26T08:02:50;5.80;;;1.90;;
65477;SDS011;53678;39.642;22.430;2024-02-26T08:05:16;6.18;;;1.92;;
65477;SDS011;53678;39.642;22.430;2024-02-26T08:07:42;9.73;;;2.35;;
65477;SDS011;53678;39.642;22.430;2024-02-26T08:10:09;5.15;;;1.75;;
65477;SDS011;53678;39.642;22.430;2024-02-26T08:12:36;8.48;;;1.90;;
65477;SDS011;53678;39.642;22.430;2024-02-26T08:15:02;6.35;;;1.33;;
65477;SDS011;53678;39.642;22.430;2024-02-26T08:17:28;8.35;;;1.75;;
65477;SDS011;53678;39.642;22.430;2024-02-26T08:19:55;6.28;;;1.85;;
65477;SDS011;53678;39.642;22.430;2024-02-26T08:22:22;5.43;;;1.60;;
65477;SDS011;53678;39.642;22.430;2024-02-26T08:24:49;9.20;;;2.10;;
65477;SDS011;53678;39.642;22.430;2024-02-26T08:27:14;6.57;;;1.67;;
65477;SDS011;53678;39.642;22.430;2024-02-26T08:29:40;6.03;;;2.55;;
65477;SDS011;53678;39.642;22.430;2024-02-26T08:32:06;10.60;;;2.95;;
65477;SDS011;53678;39.642;22.430;2024-02-26T08:34:32;6.65;;;1.50;;
65477;SDS011;53678;39.642;22.430;2024-02-26T08:36:59;5.05;;;1.33;;
65477;SDS011;53678;39.642;22.430;2024-02-26T08:39:25;5.72;;;0.90;;
65477;SDS011;53678;39.642;22.430;2024-02-26T08:41:51;8.13;;;1.63;;
65477;SDS011;53678;39.642;22.430;2024-02-26T08:44:17;9.10;;;2.05;;
65477;SDS011;53678;39.642;22.430;2024-02-26T08:46:43;11.38;;;1.58;;
65477;SDS011;53678;39.642;22.430;2024-02-26T08:49:11;5.20;;;1.48;;
65477;SDS011;53678;39.642;22.430;2024-02-26T08:51:41;7.40;;;1.88;;
65477;SDS011;53678;39.642;22.430;2024-02-26T08:54:10;7.63;;;1.98;;
65477;SDS011;53678;39.642;22.430;2024-02-26T08:56:36;9.43;;;1.85;;
65477;SDS011;53678;39.642;22.430;2024-02-26T08:59:02;8.05;;;1.48;;
65477;SDS011;53678;39.642;22.430;2024-02-26T09:01:31;5.97;;;1.17;;
65477;SDS011;53678;39.642;22.430;2024-02-26T09:03:58;5.90;;;1.77;;
65477;SDS011;53678;39.642;22.430;2024-02-26T09:06:23;6.15;;;1.52;;
65477;SDS011;53678;39.642;22.430;2024-02-26T09:08:49;9.00;;;2.60;;
65477;SDS011;53678;39.642;22.430;2024-02-26T09:11:15;6.45;;;1.83;;
65477;SDS011;53678;39.642;22.430;2024-02-26T09:13:41;6.78;;;1.30;;
65477;SDS011;53678;39.642;22.430;2024-02-26T09:16:07;6.15;;;2.00;;
65477;SDS011;53678;39.642;22.430;2024-02-26T09:18:33;4.70;;;1.33;;
65477;SDS011;53678;39.642;22.430;2024-02-26T09:20:59;6.38;;;1.90;;
65477;SDS011;53678;39.642;22.430;2024-02-26T09:23:24;4.32;;;1.80;;
65477;SDS011;53678;39.642;22.430;2024-02-26T09:25:50;6.82;;;1.98;;
65477;SDS011;53678;39.642;22.430;2024-02-26T09:28:17;4.80;;;1.92;;
65477;SDS011;53678;39.642;22.430;2024-02-26T09:30:43;7.13;;;2.13;;
65477;SDS011;53678;39.642;22.430;2024-02-26T09:33:09;6.72;;;2.08;;
65477;SDS011;53678;39.642;22.430;2024-02-26T09:35:35;5.57;;;1.50;;
65477;SDS011;53678;39.642;22.430;2024-02-26T09:38:00;3.40;;;1.95;;
65477;SDS011;53678;39.642;22.430;2024-02-26T09:40:29;6.68;;;2.50;;
65477;SDS011;53678;39.642;22.430;2024-02-26T09:42:57;4.55;;;1.80;;
65477;SDS011;53678;39.642;22.430;2024-02-26T09:45:29;8.73;;;2.95;;
65477;SDS011;53678;39.642;22.430;2024-02-26T09:47:59;5.28;;;2.00;;
65477;SDS011;53678;39.642;22.430;2024-02-26T09:50:25;9.75;;;2.33;;
65477;SDS011;53678;39.642;22.430;2024-02-26T09:52:51;8.48;;;2.47;;
65477;SDS011;53678;39.642;22.430;2024-02-26T09:55:19;6.85;;;2.13;;
65477;SDS011;53678;39.642;22.430;2024-02-26T09:57:46;9.25;;;2.35;;
65477;SDS011;53678;39.642;22.430;2024-02-26T10:00:14;10.55;;;2.45;;
65477;SDS011;53678;39.642;22.430;2024-02-26T10:02:45;9.32;;;2.70;;
65477;SDS011;53678;39.642;22.430;2024-02-26T10:05:12;12.25;;;2.97;;
65477;SDS011;53678;39.642;22.430;2024-02-26T10:07:41;9.05;;;2.78;;
65477;SDS011;53678;39.642;22.430;2024-02-26T10:10:10;6.97;;;2.28;;
65477;SDS011;53678;39.642;22.430;2024-02-26T10:12:36;11.25;;;2.78;;
65477;SDS011;53678;39.642;22.430;2024-02-26T10:15:03;11.90;;;2.53;;
65477;SDS011;53678;39.642;22.430;2024-02-26T10:17:28;5.35;;;2.10;;
65477;SDS011;53678;39.642;22.430;2024-02-26T10:19:55;18.75;;;2.55;;
65477;SDS011;53678;39.642;22.430;2024-02-26T10:22:36;5.47;;;2.22;;
65477;SDS011;53678;39.642;22.430;2024-02-26T10:25:02;10.82;;;2.50;;
65477;SDS011;53678;39.642;22.430;2024-02-26T10:27:30;6.30;;;2.40;;
65477;SDS011;53678;39.642;22.430;2024-02-26T10:29:58;10.68;;;2.42;;
65477;SDS011;53678;39.642;22.430;2024-02-26T10:32:30;8.63;;;2.70;;
65477;SDS011;53678;39.642;22.430;2024-02-26T10:34:57;10.05;;;3.53;;
65477;SDS011;53678;39.642;22.430;2024-02-26T10:37:23;12.80;;;2.80;;
65477;SDS011;53678;39.642;22.430;2024-02-26T10:39:51;14.02;;;2.92;;
65477;SDS011;53678;39.642;22.430;2024-02-26T10:42:18;10.35;;;2.40;;
65477;SDS011;53678;39.642;22.430;2024-02-26T10:44:44;12.40;;;2.65;;
65477;SDS011;53678;39.642;22.430;2024-02-26T10:47:12;11.23;;;3.45;;
65477;SDS011;53678;39.642;22.430;2024-02-26T10:49:38;12.70;;;3.03;;
65477;SDS011;53678;39.642;22.430;2024-02-26T10:52:04;14.45;;;2.83;;
65477;SDS011;53678;39.642;22.430;2024-02-26T10:54:32;12.23;;;1.95;;
65477;SDS011;53678;39.642;22.430;2024-02-26T10:56:58;11.75;;;1.85;;
65477;SDS011;53678;39.642;22.430;2024-02-26T10:59:26;12.88;;;2.60;;
65477;SDS011;53678;39.642;22.430;2024-02-26T11:01:51;9.52;;;2.05;;
65477;SDS011;53678;39.642;22.430;2024-02-26T11:04:19;10.07;;;2.58;;
65477;SDS011;53678;39.642;22.430;2024-02-26T11:06:46;9.85;;;2.33;;
65477;SDS011;53678;39.642;22.430;2024-02-26T11:09:12;6.70;;;1.95;;
65477;SDS011;53678;39.642;22.430;2024-02-26T11:11:40;11.18;;;2.03;;
65477;SDS011;53678;39.642;22.430;2024-02-26T11:14:08;9.32;;;2.30;;
65477;SDS011;53678;39.642;22.430;2024-02-26T11:16:35;13.60;;;2.45;;
65477;SDS011;53678;39.642;22.430;2024-02-26T11:19:02;14.45;;;2.00;;
65477;SDS011;53678;39.642;22.430;2024-02-26T11:21:28;15.50;;;2.83;;
65477;SDS011;53678;39.642;22.430;2024-02-26T11:24:04;10.27;;;3.15;;
65477;SDS011;53678;39.642;22.430;2024-02-26T11:26:33;16.17;;;2.78;;
65477;SDS011;53678;39.642;22.430;2024-02-26T11:29:01;17.20;;;3.63;;
65477;SDS011;53678;39.642;22.430;2024-02-26T11:31:28;18.55;;;4.10;;
65477;SDS011;53678;39.642;22.430;2024-02-26T11:33:54;14.90;;;2.53;;
65477;SDS011;53678;39.642;22.430;2024-02-26T11:36:21;15.35;;;3.75;;
65477;SDS011;53678;39.642;22.430;2024-02-26T11:38:49;10.52;;;3.08;;
65477;SDS011;53678;39.642;22.430;2024-02-26T11:41:17;15.27;;;2.67;;
65477;SDS011;53678;39.642;22.430;2024-02-26T11:43:50;15.00;;;3.20;;
65477;SDS011;53678;39.642;22.430;2024-02-26T11:46:51;18.02;;;2.30;;
65477;SDS011;53678;39.642;22.430;2024-02-26T11:51:54;12.82;;;2.28;;
65477;SDS011;53678;39.642;22.430;2024-02-26T11:57:22;9.27;;;2.08;;
65477;SDS011;53678;39.642;22.430;2024-02-26T12:05:11;15.18;;;1.85;;
65477;SDS011;53678;39.642;22.430;2024-02-26T12:08:14;16.60;;;2.80;;
65477;SDS011;53678;39.642;22.430;2024-02-26T12:10:37;17.95;;;2.58;;
65477;SDS011;53678;39.642;22.430;2024-02-26T12:16:13;11.32;;;2.88;;
65477;SDS011;53678;39.642;22.430;2024-02-26T12:18:32;18.42;;;2.92;;
65477;SDS011;53678;39.642;22.430;2024-02-26T12:21:04;9.90;;;2.03;;
65477;SDS011;53678;39.642;22.430;2024-02-26T12:23:30;13.80;;;2.80;;
65477;SDS011;53678;39.642;22.430;2024-02-26T12:25:59;11.88;;;1.33;;
65477;SDS011;53678;39.642;22.430;2024-02-26T12:28:28;10.68;;;2.30;;
65477;SDS011;53678;39.642;22.430;2024-02-26T12:30:54;14.48;;;2.60;;
65477;SDS011;53678;39.642;22.430;2024-02-26T12:33:20;16.27;;;2.35;;
65477;SDS011;53678;39.642;22.430;2024-02-26T12:35:46;15.75;;;2.17;;
65477;SDS011;53678;39.642;22.430;2024-02-26T12:38:15;10.15;;;3.35;;
65477;SDS011;53678;39.642;22.430;2024-02-26T12:40:40;32.58;;;3.58;;
65477;SDS011;53678;39.642;22.430;2024-02-26T12:43:06;16.45;;;2.40;;
65477;SDS011;53678;39.642;22.430;2024-02-26T12:45:41;4.93;;;1.65;;
65477;SDS011;53678;39.642;22.430;2024-02-26T12:48:12;9.40;;;2.13;;
65477;SDS011;53678;39.642;22.430;2024-02-26T12:50:37;9.85;;;1.38;;
65477;SDS011;53678;39.642;22.430;2024-02-26T12:53:03;13.65;;;2.08;;
65477;SDS011;53678;39.642;22.430;2024-02-26T12:55:29;16.25;;;1.85;;
65477;SDS011;53678;39.642;22.430;2024-02-26T12:57:56;17.63;;;1.80;;
65477;SDS011;53678;39.642;22.430;2024-02-26T13:00:24;14.43;;;2.05;;
65477;SDS011;53678;39.642;22.430;2024-02-26T13:02:51;11.82;;;1.75;;
65477;SDS011;53678;39.642;22.430;2024-02-26T13:05:20;17.98;;;2.13;;
65477;SDS011;53678;39.642;22.430;2024-02-26T13:07:48;11.02;;;1.40;;
65477;SDS011;53678;39.642;22.430;2024-02-26T13:10:14;9.07;;;1.60;;
65477;SDS011;53678;39.642;22.430;2024-02-26T13:12:46;16.13;;;2.75;;
65477;SDS011;53678;39.642;22.430;2024-02-26T13:15:18;15.23;;;1.83;;
65477;SDS011;53678;39.642;22.430;2024-02-26T13:17:46;8.02;;;1.65;;
65477;SDS011;53678;39.642;22.430;2024-02-26T13:20:13;11.75;;;1.98;;
65477;SDS011;53678;39.642;22.430;2024-02-26T13:23:00;10.20;;;2.20;;
65477;SDS011;53678;39.642;22.430;2024-02-26T13:25:30;23.55;;;2.95;;
65477;SDS011;53678;39.642;22.430;2024-02-26T13:28:15;19.50;;;1.73;;
65477;SDS011;53678;39.642;22.430;2024-02-26T13:30:49;9.68;;;2.42;;
65477;SDS011;53678;39.642;22.430;2024-02-26T13:33:17;8.77;;;2.38;;
65477;SDS011;53678;39.642;22.430;2024-02-26T13:35:42;23.25;;;2.88;;
65477;SDS011;53678;39.642;22.430;2024-02-26T13:38:08;14.25;;;2.25;;
65477;SDS011;53678;39.642;22.430;2024-02-26T13:40:36;14.35;;;2.15;;
65477;SDS011;53678;39.642;22.430;2024-02-26T13:43:01;11.07;;;1.73;;
65477;SDS011;53678;39.642;22.430;2024-02-26T13:45:28;15.70;;;2.17;;
65477;SDS011;53678;39.642;22.430;2024-02-26T13:48:04;12.18;;;2.53;;
65477;SDS011;53678;39.642;22.430;2024-02-26T13:50:31;10.40;;;2.15;;
65477;SDS011;53678;39.642;22.430;2024-02-26T13:52:57;16.88;;;2.45;;
65477;SDS011;53678;39.642;22.430;2024-02-26T13:55:25;21.75;;;2.78;;
65477;SDS011;53678;39.642;22.430;2024-02-26T13:57:53;14.48;;;2.58;;
65477;SDS011;53678;39.642;22.430;2024-02-26T14:00:20;19.35;;;3.03;;
65477;SDS011;53678;39.642;22.430;2024-02-26T14:02:46;14.15;;;3.00;;
65477;SDS011;53678;39.642;22.430;2024-02-26T14:05:12;17.88;;;3.05;;
65477;SDS011;53678;39.642;22.430;2024-02-26T14:07:38;16.35;;;3.05;;
65477;SDS011;53678;39.642;22.430;2024-02-26T14:10:04;12.50;;;2.45;;
65477;SDS011;53678;39.642;22.430;2024-02-26T14:12:31;13.88;;;2.88;;
65477;SDS011;53678;39.642;22.430;2024-02-26T14:14:56;13.45;;;2.30;;
65477;SDS011;53678;39.642;22.430;2024-02-26T14:17:24;13.90;;;2.70;;
65477;SDS011;53678;39.642;22.430;2024-02-26T14:19:49;19.90;;;2.88;;
65477;SDS011;53678;39.642;22.430;2024-02-26T14:22:15;11.80;;;2.20;;
65477;SDS011;53678;39.642;22.430;2024-02-26T14:24:41;11.90;;;2.58;;
65477;SDS011;53678;39.642;22.430;2024-02-26T14:27:11;11.20;;;2.75;;
65477;SDS011;53678;39.642;22.430;2024-02-26T14:29:44;12.00;;;2.90;;
65477;SDS011;53678;39.642;22.430;2024-02-26T14:32:09;9.60;;;2.85;;
65477;SDS011;53678;39.642;22.430;2024-02-26T14:34:35;18.08;;;4.00;;
65477;SDS011;53678;39.642;22.430;2024-02-26T14:37:01;12.75;;;2.70;;
65477;SDS011;53678;39.642;22.430;2024-02-26T14:39:27;14.80;;;3.38;;
65477;SDS011;53678;39.642;22.430;2024-02-26T14:41:54;14.93;;;3.30;;